sensor_id;sensor_type;location;lat;lon;timestamp;P1;durP1;ratioP1;P2;durP2;ratioP2
26750;SDS011;14345;48.272;25.926;2023-06-22T00:02:21;9.98;;;8.13;;
26750;SDS011;14345;48.272;25.926;2023-06-22T00:04:47;13.00;;;9.55;;
26750;SDS011;14345;48.272;25.926;2023-06-22T00:07:13;13.63;;;10.40;;
26750;SDS011;14345;48.272;25.926;2023-06-22T00:09:39;13.88;;;9.90;;
26750;SDS011;14345;48.272;25.926;2023-06-22T00:12:05;12.30;;;9.02;;
26750;SDS011;14345;48.272;25.926;2023-06-22T00:14:31;11.48;;;8.63;;
26750;SDS011;14345;48.272;25.926;2023-06-22T00:16:57;13.77;;;9.27;;
26750;SDS011;14345;48.272;25.926;2023-06-22T00:19:24;14.02;;;8.50;;
26750;SDS011;14345;48.272;25.926;2023-06-22T00:21:50;12.80;;;9.05;;
26750;SDS011;14345;48.272;25.926;2023-06-22T00:24:19;10.48;;;8.25;;
26750;SDS011;14345;48.272;25.926;2023-06-22T00:26:46;13.13;;;9.05;;
26750;SDS011;14345;48.272;25.926;2023-06-22T00:29:12;14.13;;;8.60;;
26750;SDS011;14345;48.272;25.926;2023-06-22T00:31:38;10.63;;;8.57;;
26750;SDS011;14345;48.272;25.926;2023-06-22T00:34:04;12.77;;;8.43;;
26750;SDS011;14345;48.272;25.926;2023-06-22T00:36:31;10.32;;;7.68;;
26750;SDS011;14345;48.272;25.926;2023-06-22T00:38:57;10.63;;;8.38;;
26750;SDS011;14345;48.272;25.926;2023-06-22T00:41:23;10.35;;;7.95;;
26750;SDS011;14345;48.272;25.926;2023-06-22T00:43:53;11.20;;;7.95;;
26750;SDS011;14345;48.272;25.926;2023-06-22T00:46:19;12.68;;;7.70;;
26750;SDS011;14345;48.272;25.926;2023-06-22T00:48:46;10.65;;;8.02;;
26750;SDS011;14345;48.272;25.926;2023-06-22T00:51:12;11.73;;;7.90;;
26750;SDS011;14345;48.272;25.926;2023-06-22T00:53:38;11.10;;;7.50;;
26750;SDS011;14345;48.272;25.926;2023-06-22T00:56:06;12.10;;;8.95;;
26750;SDS011;14345;48.272;25.926;2023-06-22T00:58:33;10.48;;;8.05;;
26750;SDS011;14345;48.272;25.926;2023-06-22T01:01:00;11.13;;;8.60;;
26750;SDS011;14345;48.272;25.926;2023-06-22T01:03:27;11.73;;;8.27;;
26750;SDS011;14345;48.272;25.926;2023-06-22T01:05:54;11.23;;;8.52;;
26750;SDS011;14345;48.272;25.926;2023-06-22T01:08:39;11.98;;;9.45;;
26750;SDS011;14345;48.272;25.926;2023-06-22T01:11:08;12.82;;;8.70;;
26750;SDS011;14345;48.272;25.926;2023-06-22T01:16:13;11.35;;;8.38;;
26750;SDS011;14345;48.272;25.926;2023-06-22T01:18:42;9.82;;;8.02;;
26750;SDS011;14345;48.272;25.926;2023-06-22T01:21:08;14.10;;;8.93;;
26750;SDS011;14345;48.272;25.926;2023-06-22T01:28:48;11.38;;;8.95;;
26750;SDS011;14345;48.272;25.926;2023-06-22T01:31:18;11.55;;;8.98;;
26750;SDS011;14345;48.272;25.926;2023-06-22T01:33:47;12.10;;;8.57;;
26750;SDS011;14345;48.272;25.926;2023-06-22T01:36:14;11.45;;;8.45;;
26750;SDS011;14345;48.272;25.926;2023-06-22T01:38:41;11.65;;;9.02;;
26750;SDS011;14345;48.272;25.926;2023-06-22T01:41:07;11.07;;;9.02;;
26750;SDS011;14345;48.272;25.926;2023-06-22T01:43:34;12.45;;;9.35;;
26750;SDS011;14345;48.272;25.926;2023-06-22T01:46:01;9.43;;;8.20;;
26750;SDS011;14345;48.272;25.926;2023-06-22T01:48:28;12.73;;;8.50;;
26750;SDS011;14345;48.272;25.926;2023-06-22T01:50:54;12.95;;;8.45;;
26750;SDS011;14345;48.272;25.926;2023-06-22T01:53:21;11.82;;;8.70;;
26750;SDS011;14345;48.272;25.926;2023-06-22T01:55:47;12.63;;;9.38;;
26750;SDS011;14345;48.272;25.926;2023-06-22T01:58:14;13.65;;;9.68;;
26750;SDS011;14345;48.272;25.926;2023-06-22T02:00:40;13.82;;;9.55;;
26750;SDS011;14345;48.272;25.926;2023-06-22T02:03:14;12.02;;;8.85;;
26750;SDS011;14345;48.272;25.926;2023-06-22T02:05:46;15.77;;;10.20;;
26750;SDS011;14345;48.272;25.926;2023-06-22T02:08:15;13.02;;;9.27;;
26750;SDS011;14345;48.272;25.926;2023-06-22T02:10:43;11.00;;;8.90;;
26750;SDS011;14345;48.272;25.926;2023-06-22T02:13:10;16.13;;;8.90;;
26750;SDS011;14345;48.272;25.926;2023-06-22T02:15:37;12.73;;;9.02;;
26750;SDS011;14345;48.272;25.926;2023-06-22T02:18:03;11.35;;;7.60;;
26750;SDS011;14345;48.272;25.926;2023-06-22T02:20:30;13.05;;;8.90;;
26750;SDS011;14345;48.272;25.926;2023-06-22T02:22:56;9.75;;;7.80;;
26750;SDS011;14345;48.272;25.926;2023-06-22T02:25:22;13.73;;;8.80;;
26750;SDS011;14345;48.272;25.926;2023-06-22T02:27:48;12.48;;;8.82;;
26750;SDS011;14345;48.272;25.926;2023-06-22T02:30:14;12.15;;;8.90;;
26750;SDS011;14345;48.272;25.926;2023-06-22T02:32:41;11.32;;;8.88;;
26750;SDS011;14345;48.272;25.926;2023-06-22T02:35:07;10.73;;;7.95;;
26750;SDS011;14345;48.272;25.926;2023-06-22T02:37:35;10.13;;;8.52;;
26750;SDS011;14345;48.272;25.926;2023-06-22T02:40:04;9.23;;;7.80;;
26750;SDS011;14345;48.272;25.926;2023-06-22T02:42:30;11.82;;;8.43;;
26750;SDS011;14345;48.272;25.926;2023-06-22T02:44:56;14.20;;;8.57;;
26750;SDS011;14345;48.272;25.926;2023-06-22T02:47:22;11.65;;;9.50;;
26750;SDS011;14345;48.272;25.926;2023-06-22T02:49:48;13.00;;;8.73;;
26750;SDS011;14345;48.272;25.926;2023-06-22T02:52:14;12.30;;;9.23;;
26750;SDS011;14345;48.272;25.926;2023-06-22T02:54:40;11.25;;;8.90;;
26750;SDS011;14345;48.272;25.926;2023-06-22T02:57:06;12.27;;;8.50;;
26750;SDS011;14345;48.272;25.926;2023-06-22T02:59:42;11.45;;;9.05;;
26750;SDS011;14345;48.272;25.926;2023-06-22T03:02:08;12.05;;;8.68;;
26750;SDS011;14345;48.272;25.926;2023-06-22T03:04:34;14.38;;;9.57;;
26750;SDS011;14345;48.272;25.926;2023-06-22T03:07:01;11.55;;;8.57;;
26750;SDS011;14345;48.272;25.926;2023-06-22T03:09:27;15.50;;;9.63;;
26750;SDS011;14345;48.272;25.926;2023-06-22T03:11:54;16.13;;;9.93;;
26750;SDS011;14345;48.272;25.926;2023-06-22T03:14:20;13.30;;;10.48;;
26750;SDS011;14345;48.272;25.926;2023-06-22T03:16:46;11.82;;;10.05;;
26750;SDS011;14345;48.272;25.926;2023-06-22T03:19:12;13.95;;;10.15;;
26750;SDS011;14345;48.272;25.926;2023-06-22T03:21:39;12.30;;;10.00;;
26750;SDS011;14345;48.272;25.926;2023-06-22T03:24:05;12.23;;;8.88;;
26750;SDS011;14345;48.272;25.926;2023-06-22T03:26:31;13.93;;;9.82;;
26750;SDS011;14345;48.272;25.926;2023-06-22T03:28:57;15.27;;;10.55;;
26750;SDS011;14345;48.272;25.926;2023-06-22T03:31:24;12.68;;;9.90;;
26750;SDS011;14345;48.272;25.926;2023-06-22T03:33:50;14.85;;;8.82;;
26750;SDS011;14345;48.272;25.926;2023-06-22T03:36:16;12.40;;;9.88;;
26750;SDS011;14345;48.272;25.926;2023-06-22T03:38:46;18.02;;;12.38;;
26750;SDS011;14345;48.272;25.926;2023-06-22T03:41:12;18.55;;;13.40;;
26750;SDS011;14345;48.272;25.926;2023-06-22T03:43:38;15.80;;;12.48;;
26750;SDS011;14345;48.272;25.926;2023-06-22T03:46:04;15.77;;;11.80;;
26750;SDS011;14345;48.272;25.926;2023-06-22T03:48:31;17.52;;;10.65;;
26750;SDS011;14345;48.272;25.926;2023-06-22T03:50:58;12.73;;;10.10;;
26750;SDS011;14345;48.272;25.926;2023-06-22T03:53:24;15.05;;;10.60;;
26750;SDS011;14345;48.272;25.926;2023-06-22T03:55:51;13.40;;;10.68;;
26750;SDS011;14345;48.272;25.926;2023-06-22T03:58:18;12.25;;;10.10;;
26750;SDS011;14345;48.272;25.926;2023-06-22T04:00:45;15.35;;;10.65;;
26750;SDS011;14345;48.272;25.926;2023-06-22T04:03:11;12.63;;;10.02;;
26750;SDS011;14345;48.272;25.926;2023-06-22T04:05:38;14.07;;;10.80;;
26750;SDS011;14345;48.272;25.926;2023-06-22T04:08:04;15.23;;;11.15;;
26750;SDS011;14345;48.272;25.926;2023-06-22T04:10:30;19.92;;;11.60;;
26750;SDS011;14345;48.272;25.926;2023-06-22T04:12:56;17.33;;;11.38;;
26750;SDS011;14345;48.272;25.926;2023-06-22T04:15:22;13.52;;;11.43;;
26750;SDS011;14345;48.272;25.926;2023-06-22T04:17:48;14.55;;;10.52;;
26750;SDS011;14345;48.272;25.926;2023-06-22T04:20:14;12.43;;;10.48;;
26750;SDS011;14345;48.272;25.926;2023-06-22T04:22:40;15.02;;;11.55;;
26750;SDS011;14345;48.272;25.926;2023-06-22T04:25:06;12.48;;;10.57;;
26750;SDS011;14345;48.272;25.926;2023-06-22T04:27:33;15.25;;;11.50;;
26750;SDS011;14345;48.272;25.926;2023-06-22T04:30:05;14.68;;;11.40;;
26750;SDS011;14345;48.272;25.926;2023-06-22T04:32:32;14.13;;;10.95;;
26750;SDS011;14345;48.272;25.926;2023-06-22T04:34:58;13.55;;;12.00;;
26750;SDS011;14345;48.272;25.926;2023-06-22T04:37:29;19.83;;;12.63;;
26750;SDS011;14345;48.272;25.926;2023-06-22T04:39:55;14.45;;;10.95;;
26750;SDS011;14345;48.272;25.926;2023-06-22T04:42:21;13.35;;;11.25;;
26750;SDS011;14345;48.272;25.926;2023-06-22T04:44:47;13.13;;;10.95;;
26750;SDS011;14345;48.272;25.926;2023-06-22T04:47:13;15.05;;;10.70;;
26750;SDS011;14345;48.272;25.926;2023-06-22T04:49:39;13.38;;;11.13;;
26750;SDS011;14345;48.272;25.926;2023-06-22T04:52:08;15.65;;;12.38;;
26750;SDS011;14345;48.272;25.926;2023-06-22T04:54:35;13.05;;;10.90;;
26750;SDS011;14345;48.272;25.926;2023-06-22T04:57:01;14.23;;;10.27;;
26750;SDS011;14345;48.272;25.926;2023-06-22T04:59:29;10.85;;;8.93;;
26750;SDS011;14345;48.272;25.926;2023-06-22T05:01:58;16.33;;;10.93;;
26750;SDS011;14345;48.272;25.926;2023-06-22T05:04:25;12.02;;;9.60;;
26750;SDS011;14345;48.272;25.926;2023-06-22T05:06:52;11.75;;;9.57;;
26750;SDS011;14345;48.272;25.926;2023-06-22T05:09:18;12.00;;;9.32;;
26750;SDS011;14345;48.272;25.926;2023-06-22T05:11:44;10.80;;;9.05;;
26750;SDS011;14345;48.272;25.926;2023-06-22T05:14:11;12.65;;;9.73;;
26750;SDS011;14345;48.272;25.926;2023-06-22T05:16:37;14.52;;;10.57;;
26750;SDS011;14345;48.272;25.926;2023-06-22T05:19:03;13.82;;;11.07;;
26750;SDS011;14345;48.272;25.926;2023-06-22T05:21:30;12.20;;;9.80;;
26750;SDS011;14345;48.272;25.926;2023-06-22T05:23:56;13.75;;;11.18;;
26750;SDS011;14345;48.272;25.926;2023-06-22T05:26:27;13.35;;;10.98;;
26750;SDS011;14345;48.272;25.926;2023-06-22T05:28:53;12.13;;;10.07;;
26750;SDS011;14345;48.272;25.926;2023-06-22T05:31:19;12.95;;;10.10;;
26750;SDS011;14345;48.272;25.926;2023-06-22T05:33:46;12.07;;;9.93;;
26750;SDS011;14345;48.272;25.926;2023-06-22T05:36:12;10.90;;;9.15;;
26750;SDS011;14345;48.272;25.926;2023-06-22T05:38:39;11.23;;;9.50;;
26750;SDS011;14345;48.272;25.926;2023-06-22T05:41:05;11.10;;;9.43;;
26750;SDS011;14345;48.272;25.926;2023-06-22T05:43:34;11.73;;;8.82;;
26750;SDS011;14345;48.272;25.926;2023-06-22T05:46:00;9.95;;;8.40;;
26750;SDS011;14345;48.272;25.926;2023-06-22T05:48:27;10.32;;;7.72;;
26750;SDS011;14345;48.272;25.926;2023-06-22T05:50:53;10.90;;;8.10;;
26750;SDS011;14345;48.272;25.926;2023-06-22T05:53:19;12.82;;;9.07;;
26750;SDS011;14345;48.272;25.926;2023-06-22T05:55:46;10.88;;;9.35;;
26750;SDS011;14345;48.272;25.926;2023-06-22T05:58:12;11.23;;;8.85;;
26750;SDS011;14345;48.272;25.926;2023-06-22T06:00:41;10.85;;;8.95;;
26750;SDS011;14345;48.272;25.926;2023-06-22T06:03:08;10.18;;;8.35;;
26750;SDS011;14345;48.272;25.926;2023-06-22T06:05:35;9.35;;;8.10;;
26750;SDS011;14345;48.272;25.926;2023-06-22T06:08:01;11.27;;;8.73;;
26750;SDS011;14345;48.272;25.926;2023-06-22T06:10:28;10.18;;;8.25;;
26750;SDS011;14345;48.272;25.926;2023-06-22T06:12:54;14.13;;;8.55;;
26750;SDS011;14345;48.272;25.926;2023-06-22T06:15:21;11.73;;;8.23;;
26750;SDS011;14345;48.272;25.926;2023-06-22T06:17:50;9.13;;;7.68;;
26750;SDS011;14345;48.272;25.926;2023-06-22T06:20:18;10.60;;;7.90;;
26750;SDS011;14345;48.272;25.926;2023-06-22T06:22:44;8.18;;;6.70;;
26750;SDS011;14345;48.272;25.926;2023-06-22T06:25:10;9.77;;;7.50;;
26750;SDS011;14345;48.272;25.926;2023-06-22T06:27:41;10.90;;;7.60;;
26750;SDS011;14345;48.272;25.926;2023-06-22T06:30:07;8.98;;;8.05;;
26750;SDS011;14345;48.272;25.926;2023-06-22T06:32:33;9.05;;;6.82;;
26750;SDS011;14345;48.272;25.926;2023-06-22T06:34:59;10.02;;;7.00;;
26750;SDS011;14345;48.272;25.926;2023-06-22T06:37:25;9.63;;;7.93;;
26750;SDS011;14345;48.272;25.926;2023-06-22T06:39:51;8.98;;;7.45;;
26750;SDS011;14345;48.272;25.926;2023-06-22T06:42:17;11.07;;;7.40;;
26750;SDS011;14345;48.272;25.926;2023-06-22T06:44:44;7.63;;;6.82;;
26750;SDS011;14345;48.272;25.926;2023-06-22T06:47:10;11.35;;;6.88;;
26750;SDS011;14345;48.272;25.926;2023-06-22T06:49:36;8.38;;;6.72;;
26750;SDS011;14345;48.272;25.926;2023-06-22T06:52:02;8.60;;;6.88;;
26750;SDS011;14345;48.272;25.926;2023-06-22T06:54:28;9.90;;;7.13;;
26750;SDS011;14345;48.272;25.926;2023-06-22T06:56:54;10.32;;;6.95;;
26750;SDS011;14345;48.272;25.926;2023-06-22T06:59:20;9.43;;;7.10;;
26750;SDS011;14345;48.272;25.926;2023-06-22T07:01:47;7.45;;;6.70;;
26750;SDS011;14345;48.272;25.926;2023-06-22T07:04:13;8.80;;;6.68;;
26750;SDS011;14345;48.272;25.926;2023-06-22T07:06:39;9.93;;;6.15;;
26750;SDS011;14345;48.272;25.926;2023-06-22T07:09:05;8.50;;;7.32;;
26750;SDS011;14345;48.272;25.926;2023-06-22T07:11:31;8.77;;;6.88;;
26750;SDS011;14345;48.272;25.926;2023-06-22T07:13:57;8.38;;;7.15;;
26750;SDS011;14345;48.272;25.926;2023-06-22T07:16:25;7.85;;;6.45;;
26750;SDS011;14345;48.272;25.926;2023-06-22T07:18:52;8.73;;;6.95;;
26750;SDS011;14345;48.272;25.926;2023-06-22T07:21:18;7.25;;;6.38;;
26750;SDS011;14345;48.272;25.926;2023-06-22T07:23:44;7.13;;;6.13;;
26750;SDS011;14345;48.272;25.926;2023-06-22T07:26:10;7.47;;;6.03;;
26750;SDS011;14345;48.272;25.926;2023-06-22T07:28:37;10.77;;;6.65;;
26750;SDS011;14345;48.272;25.926;2023-06-22T07:31:05;7.00;;;6.30;;
26750;SDS011;14345;48.272;25.926;2023-06-22T07:33:32;8.68;;;6.47;;
26750;SDS011;14345;48.272;25.926;2023-06-22T07:35:58;8.32;;;6.22;;
26750;SDS011;14345;48.272;25.926;2023-06-22T07:38:32;8.32;;;6.30;;
26750;SDS011;14345;48.272;25.926;2023-06-22T07:40:59;7.13;;;5.60;;
26750;SDS011;14345;48.272;25.926;2023-06-22T07:43:25;11.02;;;6.32;;
26750;SDS011;14345;48.272;25.926;2023-06-22T07:45:51;6.40;;;5.75;;
26750;SDS011;14345;48.272;25.926;2023-06-22T07:48:21;8.18;;;5.55;;
26750;SDS011;14345;48.272;25.926;2023-06-22T07:50:47;8.05;;;6.20;;
26750;SDS011;14345;48.272;25.926;2023-06-22T07:53:13;10.38;;;6.38;;
26750;SDS011;14345;48.272;25.926;2023-06-22T07:55:39;6.25;;;5.20;;
26750;SDS011;14345;48.272;25.926;2023-06-22T07:58:05;8.13;;;5.82;;
26750;SDS011;14345;48.272;25.926;2023-06-22T08:00:33;8.38;;;6.30;;
26750;SDS011;14345;48.272;25.926;2023-06-22T08:02:59;6.20;;;5.55;;
26750;SDS011;14345;48.272;25.926;2023-06-22T08:05:25;7.82;;;6.05;;
26750;SDS011;14345;48.272;25.926;2023-06-22T08:07:51;9.43;;;5.55;;
26750;SDS011;14345;48.272;25.926;2023-06-22T08:10:18;6.38;;;5.43;;
26750;SDS011;14345;48.272;25.926;2023-06-22T08:12:44;9.73;;;5.45;;
26750;SDS011;14345;48.272;25.926;2023-06-22T08:15:10;9.35;;;6.40;;
26750;SDS011;14345;48.272;25.926;2023-06-22T08:17:39;8.35;;;5.80;;
26750;SDS011;14345;48.272;25.926;2023-06-22T08:20:06;8.40;;;5.55;;
26750;SDS011;14345;48.272;25.926;2023-06-22T08:22:37;9.75;;;6.53;;
26750;SDS011;14345;48.272;25.926;2023-06-22T08:25:03;6.10;;;5.45;;
26750;SDS011;14345;48.272;25.926;2023-06-22T08:27:30;7.15;;;5.47;;
26750;SDS011;14345;48.272;25.926;2023-06-22T08:29:59;6.90;;;6.20;;
26750;SDS011;14345;48.272;25.926;2023-06-22T08:32:27;13.18;;;5.53;;
26750;SDS011;14345;48.272;25.926;2023-06-22T08:34:54;5.80;;;5.18;;
26750;SDS011;14345;48.272;25.926;2023-06-22T08:37:20;6.53;;;5.25;;
26750;SDS011;14345;48.272;25.926;2023-06-22T08:39:55;5.63;;;5.13;;
26750;SDS011;14345;48.272;25.926;2023-06-22T08:42:21;6.47;;;5.50;;
26750;SDS011;14345;48.272;25.926;2023-06-22T08:44:48;6.30;;;5.55;;
26750;SDS011;14345;48.272;25.926;2023-06-22T08:47:14;5.60;;;5.10;;
26750;SDS011;14345;48.272;25.926;2023-06-22T08:49:40;5.95;;;5.35;;
26750;SDS011;14345;48.272;25.926;2023-06-22T08:52:06;6.15;;;5.47;;
26750;SDS011;14345;48.272;25.926;2023-06-22T08:54:32;7.38;;;6.60;;
26750;SDS011;14345;48.272;25.926;2023-06-22T08:56:59;6.75;;;6.05;;
26750;SDS011;14345;48.272;25.926;2023-06-22T08:59:25;8.35;;;5.32;;
26750;SDS011;14345;48.272;25.926;2023-06-22T09:01:51;5.75;;;5.15;;
26750;SDS011;14345;48.272;25.926;2023-06-22T09:04:17;7.13;;;5.40;;
26750;SDS011;14345;48.272;25.926;2023-06-22T09:06:43;5.93;;;5.32;;
26750;SDS011;14345;48.272;25.926;2023-06-22T09:09:12;7.35;;;5.35;;
26750;SDS011;14345;48.272;25.926;2023-06-22T09:11:39;6.25;;;5.30;;
26750;SDS011;14345;48.272;25.926;2023-06-22T09:14:05;6.13;;;4.65;;
26750;SDS011;14345;48.272;25.926;2023-06-22T09:16:31;9.00;;;5.32;;
26750;SDS011;14345;48.272;25.926;2023-06-22T09:18:57;6.55;;;5.60;;
26750;SDS011;14345;48.272;25.926;2023-06-22T09:21:23;5.68;;;5.07;;
26750;SDS011;14345;48.272;25.926;2023-06-22T09:23:49;8.88;;;5.80;;
26750;SDS011;14345;48.272;25.926;2023-06-22T09:26:19;7.35;;;5.75;;
26750;SDS011;14345;48.272;25.926;2023-06-22T09:28:45;6.13;;;5.53;;
26750;SDS011;14345;48.272;25.926;2023-06-22T09:31:11;7.25;;;5.40;;
26750;SDS011;14345;48.272;25.926;2023-06-22T09:33:37;7.03;;;5.50;;
26750;SDS011;14345;48.272;25.926;2023-06-22T09:36:04;12.13;;;9.23;;
26750;SDS011;14345;48.272;25.926;2023-06-22T09:38:34;8.68;;;7.18;;
26750;SDS011;14345;48.272;25.926;2023-06-22T09:41:00;5.82;;;5.28;;
26750;SDS011;14345;48.272;25.926;2023-06-22T09:43:26;7.00;;;5.97;;
26750;SDS011;14345;48.272;25.926;2023-06-22T09:45:52;6.82;;;5.32;;
26750;SDS011;14345;48.272;25.926;2023-06-22T09:48:18;7.38;;;5.95;;
26750;SDS011;14345;48.272;25.926;2023-06-22T09:50:45;5.85;;;5.25;;
26750;SDS011;14345;48.272;25.926;2023-06-22T09:53:11;6.15;;;4.78;;
26750;SDS011;14345;48.272;25.926;2023-06-22T09:55:37;6.10;;;5.50;;
26750;SDS011;14345;48.272;25.926;2023-06-22T09:58:03;8.05;;;5.72;;
26750;SDS011;14345;48.272;25.926;2023-06-22T10:00:29;6.80;;;4.95;;
26750;SDS011;14345;48.272;25.926;2023-06-22T10:02:54;6.68;;;5.45;;
26750;SDS011;14345;48.272;25.926;2023-06-22T10:05:21;7.63;;;5.70;;
26750;SDS011;14345;48.272;25.926;2023-06-22T10:07:47;11.20;;;5.70;;
26750;SDS011;14345;48.272;25.926;2023-06-22T10:10:13;8.50;;;5.50;;
26750;SDS011;14345;48.272;25.926;2023-06-22T10:12:45;5.47;;;4.97;;
26750;SDS011;14345;48.272;25.926;2023-06-22T10:15:11;6.25;;;5.18;;
26750;SDS011;14345;48.272;25.926;2023-06-22T10:17:37;8.10;;;5.57;;
26750;SDS011;14345;48.272;25.926;2023-06-22T10:20:04;6.28;;;5.00;;
26750;SDS011;14345;48.272;25.926;2023-06-22T10:22:37;5.95;;;5.28;;
26750;SDS011;14345;48.272;25.926;2023-06-22T10:25:03;5.68;;;5.00;;
26750;SDS011;14345;48.272;25.926;2023-06-22T10:27:30;6.30;;;4.93;;
26750;SDS011;14345;48.272;25.926;2023-06-22T10:29:56;5.68;;;5.15;;
26750;SDS011;14345;48.272;25.926;2023-06-22T10:32:22;4.82;;;4.30;;
26750;SDS011;14345;48.272;25.926;2023-06-22T10:34:48;6.93;;;4.90;;
26750;SDS011;14345;48.272;25.926;2023-06-22T10:37:14;4.53;;;4.13;;
26750;SDS011;14345;48.272;25.926;2023-06-22T10:39:40;6.93;;;4.50;;
26750;SDS011;14345;48.272;25.926;2023-06-22T10:42:06;4.50;;;3.97;;
26750;SDS011;14345;48.272;25.926;2023-06-22T10:44:32;6.68;;;4.50;;
26750;SDS011;14345;48.272;25.926;2023-06-22T10:46:58;5.38;;;4.88;;
26750;SDS011;14345;48.272;25.926;2023-06-22T10:49:24;10.38;;;4.43;;
26750;SDS011;14345;48.272;25.926;2023-06-22T10:51:50;4.38;;;3.97;;
26750;SDS011;14345;48.272;25.926;2023-06-22T10:54:16;4.35;;;3.95;;
26750;SDS011;14345;48.272;25.926;2023-06-22T10:56:44;4.75;;;4.35;;
26750;SDS011;14345;48.272;25.926;2023-06-22T10:59:10;6.13;;;3.67;;
26750;SDS011;14345;48.272;25.926;2023-06-22T11:01:36;7.75;;;4.00;;
26750;SDS011;14345;48.272;25.926;2023-06-22T11:04:02;3.90;;;3.60;;
26750;SDS011;14345;48.272;25.926;2023-06-22T11:06:29;6.57;;;3.60;;
26750;SDS011;14345;48.272;25.926;2023-06-22T11:08:55;7.63;;;3.63;;
26750;SDS011;14345;48.272;25.926;2023-06-22T11:11:21;4.47;;;4.07;;
26750;SDS011;14345;48.272;25.926;2023-06-22T11:13:47;4.57;;;3.70;;
26750;SDS011;14345;48.272;25.926;2023-06-22T11:16:13;4.00;;;3.60;;
26750;SDS011;14345;48.272;25.926;2023-06-22T11:18:38;3.13;;;2.83;;
26750;SDS011;14345;48.272;25.926;2023-06-22T11:21:04;3.47;;;3.08;;
26750;SDS011;14345;48.272;25.926;2023-06-22T11:23:30;4.45;;;2.97;;
26750;SDS011;14345;48.272;25.926;2023-06-22T11:25:56;3.63;;;3.33;;
26750;SDS011;14345;48.272;25.926;2023-06-22T11:28:23;5.22;;;4.00;;
26750;SDS011;14345;48.272;25.926;2023-06-22T11:30:49;4.43;;;3.95;;
26750;SDS011;14345;48.272;25.926;2023-06-22T11:33:15;4.13;;;3.70;;
26750;SDS011;14345;48.272;25.926;2023-06-22T11:35:41;7.75;;;4.90;;
26750;SDS011;14345;48.272;25.926;2023-06-22T11:38:07;6.15;;;4.55;;
26750;SDS011;14345;48.272;25.926;2023-06-22T11:40:33;8.85;;;4.20;;
26750;SDS011;14345;48.272;25.926;2023-06-22T11:42:59;5.78;;;4.00;;
26750;SDS011;14345;48.272;25.926;2023-06-22T11:45:25;4.80;;;3.85;;
26750;SDS011;14345;48.272;25.926;2023-06-22T11:47:51;5.65;;;3.30;;
26750;SDS011;14345;48.272;25.926;2023-06-22T11:50:17;3.53;;;2.95;;
26750;SDS011;14345;48.272;25.926;2023-06-22T11:52:43;5.40;;;3.50;;
26750;SDS011;14345;48.272;25.926;2023-06-22T11:55:09;6.60;;;4.15;;
26750;SDS011;14345;48.272;25.926;2023-06-22T11:57:35;7.35;;;4.88;;
26750;SDS011;14345;48.272;25.926;2023-06-22T12:00:02;11.85;;;4.93;;
26750;SDS011;14345;48.272;25.926;2023-06-22T12:02:31;6.70;;;4.30;;
26750;SDS011;14345;48.272;25.926;2023-06-22T12:04:57;5.68;;;3.90;;
26750;SDS011;14345;48.272;25.926;2023-06-22T12:07:23;4.30;;;3.47;;
26750;SDS011;14345;48.272;25.926;2023-06-22T12:09:49;5.15;;;4.10;;
26750;SDS011;14345;48.272;25.926;2023-06-22T12:12:15;4.97;;;4.13;;
26750;SDS011;14345;48.272;25.926;2023-06-22T12:14:41;5.85;;;4.28;;
26750;SDS011;14345;48.272;25.926;2023-06-22T12:17:07;4.40;;;4.00;;
26750;SDS011;14345;48.272;25.926;2023-06-22T12:19:33;3.55;;;3.25;;
26750;SDS011;14345;48.272;25.926;2023-06-22T12:21:59;9.93;;;4.40;;
26750;SDS011;14345;48.272;25.926;2023-06-22T12:24:25;4.22;;;3.80;;
26750;SDS011;14345;48.272;25.926;2023-06-22T12:26:51;5.00;;;3.80;;
26750;SDS011;14345;48.272;25.926;2023-06-22T12:29:17;5.55;;;3.70;;
26750;SDS011;14345;48.272;25.926;2023-06-22T12:31:43;4.88;;;4.03;;
26750;SDS011;14345;48.272;25.926;2023-06-22T12:34:09;3.60;;;3.30;;
26750;SDS011;14345;48.272;25.926;2023-06-22T12:36:35;4.13;;;3.08;;
26750;SDS011;14345;48.272;25.926;2023-06-22T12:39:01;3.35;;;2.90;;
26750;SDS011;14345;48.272;25.926;2023-06-22T12:41:27;4.88;;;3.60;;
26750;SDS011;14345;48.272;25.926;2023-06-22T12:43:53;3.83;;;3.10;;
26750;SDS011;14345;48.272;25.926;2023-06-22T12:46:19;3.08;;;2.80;;
26750;SDS011;14345;48.272;25.926;2023-06-22T12:48:45;3.80;;;3.40;;
26750;SDS011;14345;48.272;25.926;2023-06-22T12:51:11;2.85;;;2.65;;
26750;SDS011;14345;48.272;25.926;2023-06-22T12:53:37;2.80;;;2.60;;
26750;SDS011;14345;48.272;25.926;2023-06-22T12:56:03;4.15;;;3.20;;
26750;SDS011;14345;48.272;25.926;2023-06-22T12:58:29;3.92;;;2.97;;
26750;SDS011;14345;48.272;25.926;2023-06-22T13:00:55;3.65;;;3.00;;
26750;SDS011;14345;48.272;25.926;2023-06-22T13:03:21;3.55;;;2.70;;
26750;SDS011;14345;48.272;25.926;2023-06-22T13:05:50;3.38;;;3.08;;
26750;SDS011;14345;48.272;25.926;2023-06-22T13:08:16;3.00;;;2.67;;
26750;SDS011;14345;48.272;25.926;2023-06-22T13:10:42;2.53;;;2.33;;
26750;SDS011;14345;48.272;25.926;2023-06-22T13:13:08;4.20;;;2.78;;
26750;SDS011;14345;48.272;25.926;2023-06-22T13:15:34;5.40;;;3.00;;
26750;SDS011;14345;48.272;25.926;2023-06-22T13:18:00;3.28;;;2.95;;
26750;SDS011;14345;48.272;25.926;2023-06-22T13:20:26;3.53;;;3.22;;
26750;SDS011;14345;48.272;25.926;2023-06-22T13:22:53;4.30;;;3.63;;
26750;SDS011;14345;48.272;25.926;2023-06-22T13:25:20;4.53;;;3.30;;
26750;SDS011;14345;48.272;25.926;2023-06-22T13:27:48;3.20;;;2.90;;
26750;SDS011;14345;48.272;25.926;2023-06-22T13:30:14;4.03;;;3.30;;
26750;SDS011;14345;48.272;25.926;2023-06-22T13:32:40;3.85;;;3.42;;
26750;SDS011;14345;48.272;25.926;2023-06-22T13:35:08;5.03;;;2.63;;
26750;SDS011;14345;48.272;25.926;2023-06-22T13:37:34;2.90;;;2.70;;
26750;SDS011;14345;48.272;25.926;2023-06-22T13:40:00;4.25;;;3.08;;
26750;SDS011;14345;48.272;25.926;2023-06-22T13:42:30;4.65;;;3.17;;
26750;SDS011;14345;48.272;25.926;2023-06-22T13:44:56;4.13;;;3.03;;
26750;SDS011;14345;48.272;25.926;2023-06-22T13:47:22;4.75;;;3.10;;
26750;SDS011;14345;48.272;25.926;2023-06-22T13:49:48;3.42;;;3.03;;
26750;SDS011;14345;48.272;25.926;2023-06-22T13:52:14;6.00;;;3.40;;
26750;SDS011;14345;48.272;25.926;2023-06-22T13:54:40;4.15;;;3.35;;
26750;SDS011;14345;48.272;25.926;2023-06-22T13:57:06;6.90;;;2.83;;
26750;SDS011;14345;48.272;25.926;2023-06-22T13:59:32;8.82;;;4.07;;
26750;SDS011;14345;48.272;25.926;2023-06-22T14:01:58;13.45;;;3.97;;
26750;SDS011;14345;48.272;25.926;2023-06-22T14:04:24;6.18;;;3.13;;
26750;SDS011;14345;48.272;25.926;2023-06-22T14:06:50;5.63;;;2.80;;
26750;SDS011;14345;48.272;25.926;2023-06-22T14:09:16;5.13;;;2.70;;
26750;SDS011;14345;48.272;25.926;2023-06-22T14:11:42;3.92;;;2.50;;
26750;SDS011;14345;48.272;25.926;2023-06-22T14:14:08;2.28;;;2.08;;
26750;SDS011;14345;48.272;25.926;2023-06-22T14:16:34;3.90;;;2.78;;
26750;SDS011;14345;48.272;25.926;2023-06-22T14:19:00;3.20;;;2.47;;
26750;SDS011;14345;48.272;25.926;2023-06-22T14:21:26;2.60;;;2.30;;
26750;SDS011;14345;48.272;25.926;2023-06-22T14:23:52;3.80;;;2.17;;
26750;SDS011;14345;48.272;25.926;2023-06-22T14:26:18;5.78;;;5.28;;
26750;SDS011;14345;48.272;25.926;2023-06-22T14:28:45;5.72;;;4.13;;
26750;SDS011;14345;48.272;25.926;2023-06-22T14:33:47;2.80;;;2.60;;